sensor_id;sensor_type;location;lat;lon;timestamp;temperature;humidity
3268;DHT22;1646;52.450;13.326;2024-03-23T00:55:08;9.80;99.90
3268;DHT22;1646;52.450;13.326;2024-03-23T01:00:06;10.00;99.90
3268;DHT22;1646;52.450;13.326;2024-03-23T01:05:06;10.00;99.90
3268;DHT22;1646;52.450;13.326;2024-03-23T01:10:04;10.00;99.90
3268;DHT22;1646;52.450;13.326;2024-03-23T01:15:03;9.90;99.90
3268;DHT22;1646;52.450;13.326;2024-03-23T01:20:00;10.00;99.90
3268;DHT22;1646;52.450;13.326;2024-03-23T01:24:57;10.00;99.90
3268;DHT22;1646;52.450;13.326;2024-03-23T01:29:54;10.10;99.90
3268;DHT22;1646;52.450;13.326;2024-03-23T01:34:53;10.20;99.90
3268;DHT22;1646;52.450;13.326;2024-03-23T01:39:50;10.10;99.90
3268;DHT22;1646;52.450;13.326;2024-03-23T01:45:08;10.20;99.90
3268;DHT22;1646;52.450;13.326;2024-03-23T01:50:08;10.20;99.90
3268;DHT22;1646;52.450;13.326;2024-03-23T01:55:07;10.10;99.90
3268;DHT22;1646;52.450;13.326;2024-03-23T02:00:05;10.00;99.90
3268;DHT22;1646;52.450;13.326;2024-03-23T02:05:09;10.00;99.90
3268;DHT22;1646;52.450;13.326;2024-03-23T02:10:07;10.00;99.90
3268;DHT22;1646;52.450;13.326;2024-03-23T02:15:06;9.90;99.90
3268;DHT22;1646;52.450;13.326;2024-03-23T02:20:05;9.90;99.90
3268;DHT22;1646;52.450;13.326;2024-03-23T02:25:05;9.90;99.90
3268;DHT22;1646;52.450;13.326;2024-03-23T02:30:02;9.80;99.90
3268;DHT22;1646;52.450;13.326;2024-03-23T02:34:59;9.80;99.90
3268;DHT22;1646;52.450;13.326;2024-03-23T02:39:57;10.00;99.90
3268;DHT22;1646;52.450;13.326;2024-03-23T02:44:56;9.90;99.90
3268;DHT22;1646;52.450;13.326;2024-03-23T02:49:54;9.90;99.90
3268;DHT22;1646;52.450;13.326;2024-03-23T02:54:51;9.80;99.90
3268;DHT22;1646;52.450;13.326;2024-03-23T02:59:48;9.70;99.90
3268;DHT22;1646;52.450;13.326;2024-03-23T03:04:47;9.70;99.90
3268;DHT22;1646;52.450;13.326;2024-03-23T03:09:44;9.70;99.90
3268;DHT22;1646;52.450;13.326;2024-03-23T03:14:41;9.70;99.90
3268;DHT22;1646;52.450;13.326;2024-03-23T03:19:38;9.60;99.90
3268;DHT22;1646;52.450;13.326;2024-03-23T03:24:37;9.50;99.90
3268;DHT22;1646;52.450;13.326;2024-03-23T03:29:33;9.50;99.90
3268;DHT22;1646;52.450;13.326;2024-03-23T03:34:31;9.40;99.90
3268;DHT22;1646;52.450;13.326;2024-03-23T03:39:28;9.30;99.90
3268;DHT22;1646;52.450;13.326;2024-03-23T03:44:26;9.30;99.90
3268;DHT22;1646;52.450;13.326;2024-03-23T03:49:24;9.30;99.90
3268;DHT22;1646;52.450;13.326;2024-03-23T03:54:21;9.20;99.90
3268;DHT22;1646;52.450;13.326;2024-03-23T03:59:18;9.20;99.90
3268;DHT22;1646;52.450;13.326;2024-03-23T04:04:17;9.10;99.90
3268;DHT22;1646;52.450;13.326;2024-03-23T04:09:14;9.00;99.90
3268;DHT22;1646;52.450;13.326;2024-03-23T04:14:11;9.00;99.90
3268;DHT22;1646;52.450;13.326;2024-03-23T04:19:08;9.00;99.90
3268;DHT22;1646;52.450;13.326;2024-03-23T04:24:07;8.90;99.90
3268;DHT22;1646;52.450;13.326;2024-03-23T04:29:04;8.90;99.90
3268;DHT22;1646;52.450;13.326;2024-03-23T04:34:01;8.80;99.90
3268;DHT22;1646;52.450;13.326;2024-03-23T04:38:59;8.80;99.90
3268;DHT22;1646;52.450;13.326;2024-03-23T04:43:58;8.90;99.90
3268;DHT22;1646;52.450;13.326;2024-03-23T04:48:55;8.90;99.90
3268;DHT22;1646;52.450;13.326;2024-03-23T04:53:53;9.00;99.90
3268;DHT22;1646;52.450;13.326;2024-03-23T04:58:50;9.10;99.90
3268;DHT22;1646;52.450;13.326;2024-03-23T05:03:48;9.00;99.90
3268;DHT22;1646;52.450;13.326;2024-03-23T05:08:45;9.00;99.90
3268;DHT22;1646;52.450;13.326;2024-03-23T05:13:43;8.90;99.90
3268;DHT22;1646;52.450;13.326;2024-03-23T05:18:40;8.90;99.90
3268;DHT22;1646;52.450;13.326;2024-03-23T05:23:39;8.90;99.90
3268;DHT22;1646;52.450;13.326;2024-03-23T05:28:36;8.90;99.90
3268;DHT22;1646;52.450;13.326;2024-03-23T05:33:33;8.80;99.90
3268;DHT22;1646;52.450;13.326;2024-03-23T05:38:30;8.80;99.90
3268;DHT22;1646;52.450;13.326;2024-03-23T05:43:28;8.80;99.90
3268;DHT22;1646;52.450;13.326;2024-03-23T05:48:27;8.70;99.90
3268;DHT22;1646;52.450;13.326;2024-03-23T05:53:26;9.00;99.90
3268;DHT22;1646;52.450;13.326;2024-03-23T05:58:24;9.10;99.90
3268;DHT22;1646;52.450;13.326;2024-03-23T06:03:24;9.00;99.90
3268;DHT22;1646;52.450;13.326;2024-03-23T06:08:21;9.00;99.90
3268;DHT22;1646;52.450;13.326;2024-03-23T06:13:18;9.00;99.90
3268;DHT22;1646;52.450;13.326;2024-03-23T06:18:15;8.90;99.90
3268;DHT22;1646;52.450;13.326;2024-03-23T06:23:14;8.80;99.90
3268;DHT22;1646;52.450;13.326;2024-03-23T06:28:12;8.90;99.90
3268;DHT22;1646;52.450;13.326;2024-03-23T06:33:09;8.90;99.90
3268;DHT22;1646;52.450;13.326;2024-03-23T06:38:07;8.80;99.90
3268;DHT22;1646;52.450;13.326;2024-03-23T06:43:05;8.80;99.90
3268;DHT22;1646;52.450;13.326;2024-03-23T06:48:02;8.80;99.90
3268;DHT22;1646;52.450;13.326;2024-03-23T06:53:00;8.80;99.90
3268;DHT22;1646;52.450;13.326;2024-03-23T06:57:58;8.70;99.90
3268;DHT22;1646;52.450;13.326;2024-03-23T07:02:56;8.70;99.90
3268;DHT22;1646;52.450;13.326;2024-03-23T07:07:53;8.80;99.90
3268;DHT22;1646;52.450;13.326;2024-03-23T07:12:50;8.80;99.90
3268;DHT22;1646;52.450;13.326;2024-03-23T07:17:47;8.80;99.90
3268;DHT22;1646;52.450;13.326;2024-03-23T07:22:47;8.80;99.90
3268;DHT22;1646;52.450;13.326;2024-03-23T07:27:45;8.80;99.90
3268;DHT22;1646;52.450;13.326;2024-03-23T07:32:44;8.90;99.90
3268;DHT22;1646;52.450;13.326;2024-03-23T07:37:42;9.00;99.90
3268;DHT22;1646;52.450;13.326;2024-03-23T07:42:40;9.00;99.90
3268;DHT22;1646;52.450;13.326;2024-03-23T07:47:37;9.10;99.90
3268;DHT22;1646;52.450;13.326;2024-03-23T07:52:34;9.20;99.90
3268;DHT22;1646;52.450;13.326;2024-03-23T07:57:32;9.20;99.90
3268;DHT22;1646;52.450;13.326;2024-03-23T08:02:30;9.10;99.90
3268;DHT22;1646;52.450;13.326;2024-03-23T08:07:27;9.00;99.90
3268;DHT22;1646;52.450;13.326;2024-03-23T08:12:24;9.00;99.90
3268;DHT22;1646;52.450;13.326;2024-03-23T08:17:22;9.00;99.90
3268;DHT22;1646;52.450;13.326;2024-03-23T08:22:21;9.00;99.90
3268;DHT22;1646;52.450;13.326;2024-03-23T08:27:18;9.10;99.90
3268;DHT22;1646;52.450;13.326;2024-03-23T08:32:15;9.00;99.90
3268;DHT22;1646;52.450;13.326;2024-03-23T08:37:12;8.70;99.90
3268;DHT22;1646;52.450;13.326;2024-03-23T08:42:11;8.30;99.90
3268;DHT22;1646;52.450;13.326;2024-03-23T08:47:08;7.90;99.90
3268;DHT22;1646;52.450;13.326;2024-03-23T08:52:05;7.70;99.90
3268;DHT22;1646;52.450;13.326;2024-03-23T08:57:03;7.60;99.90
3268;DHT22;1646;52.450;13.326;2024-03-23T09:02:01;7.50;99.90
3268;DHT22;1646;52.450;13.326;2024-03-23T09:06:58;7.50;99.90
3268;DHT22;1646;52.450;13.326;2024-03-23T09:11:56;7.30;99.90
3268;DHT22;1646;52.450;13.326;2024-03-23T09:16:53;7.20;99.90
3268;DHT22;1646;52.450;13.326;2024-03-23T09:21:51;7.10;99.90
3268;DHT22;1646;52.450;13.326;2024-03-23T09:26:48;7.10;99.90
3268;DHT22;1646;52.450;13.326;2024-03-23T09:31:45;6.90;99.90
3268;DHT22;1646;52.450;13.326;2024-03-23T09:36:42;7.00;99.90
3268;DHT22;1646;52.450;13.326;2024-03-23T09:41:42;7.00;99.90
3268;DHT22;1646;52.450;13.326;2024-03-23T09:46:39;7.10;99.90
3268;DHT22;1646;52.450;13.326;2024-03-23T09:51:37;7.00;99.90
3268;DHT22;1646;52.450;13.326;2024-03-23T09:56:34;7.10;99.90
3268;DHT22;1646;52.450;13.326;2024-03-23T10:01:32;7.10;99.90
3268;DHT22;1646;52.450;13.326;2024-03-23T10:06:29;7.10;99.90
3268;DHT22;1646;52.450;13.326;2024-03-23T10:11:27;6.90;99.90
3268;DHT22;1646;52.450;13.326;2024-03-23T10:16:25;6.80;99.90
3268;DHT22;1646;52.450;13.326;2024-03-23T10:21:24;6.80;99.90
3268;DHT22;1646;52.450;13.326;2024-03-23T10:26:22;6.80;99.90
3268;DHT22;1646;52.450;13.326;2024-03-23T10:31:21;6.90;99.90
3268;DHT22;1646;52.450;13.326;2024-03-23T10:36:19;7.00;99.90
3268;DHT22;1646;52.450;13.326;2024-03-23T10:41:18;7.10;99.90
3268;DHT22;1646;52.450;13.326;2024-03-23T10:46:16;7.20;99.90
3268;DHT22;1646;52.450;13.326;2024-03-23T10:51:14;7.20;99.90
3268;DHT22;1646;52.450;13.326;2024-03-23T10:56:12;7.10;99.90
3268;DHT22;1646;52.450;13.326;2024-03-23T11:01:13;7.10;99.90
3268;DHT22;1646;52.450;13.326;2024-03-23T11:06:34;7.10;99.90
3268;DHT22;1646;52.450;13.326;2024-03-23T11:11:32;7.20;99.90
3268;DHT22;1646;52.450;13.326;2024-03-23T11:16:31;7.40;99.90
3268;DHT22;1646;52.450;13.326;2024-03-23T11:21:53;7.40;99.90
3268;DHT22;1646;52.450;13.326;2024-03-23T11:26:50;7.50;99.90
3268;DHT22;1646;52.450;13.326;2024-03-23T11:31:49;7.70;99.90
3268;DHT22;1646;52.450;13.326;2024-03-23T11:36:47;7.80;99.90
3268;DHT22;1646;52.450;13.326;2024-03-23T11:41:47;8.00;99.90
3268;DHT22;1646;52.450;13.326;2024-03-23T11:46:45;8.20;99.90
3268;DHT22;1646;52.450;13.326;2024-03-23T11:51:43;8.10;99.90
3268;DHT22;1646;52.450;13.326;2024-03-23T11:56:41;8.30;99.90
3268;DHT22;1646;52.450;13.326;2024-03-23T12:01:50;8.20;99.90
3268;DHT22;1646;52.450;13.326;2024-03-23T12:06:49;7.90;99.90
3268;DHT22;1646;52.450;13.326;2024-03-23T12:11:46;7.90;99.90
3268;DHT22;1646;52.450;13.326;2024-03-23T12:16:43;7.80;99.90
3268;DHT22;1646;52.450;13.326;2024-03-23T12:21:40;7.80;99.90
3268;DHT22;1646;52.450;13.326;2024-03-23T12:26:39;7.80;99.90
3268;DHT22;1646;52.450;13.326;2024-03-23T12:31:36;7.90;99.90
3268;DHT22;1646;52.450;13.326;2024-03-23T12:36:33;8.10;99.90
3268;DHT22;1646;52.450;13.326;2024-03-23T12:41:30;8.00;99.90
3268;DHT22;1646;52.450;13.326;2024-03-23T12:46:28;7.80;99.90
3268;DHT22;1646;52.450;13.326;2024-03-23T12:51:25;7.70;99.90
3268;DHT22;1646;52.450;13.326;2024-03-23T12:56:22;7.70;99.90
3268;DHT22;1646;52.450;13.326;2024-03-23T13:01:20;7.70;99.90
3268;DHT22;1646;52.450;13.326;2024-03-23T13:06:19;7.90;99.90
3268;DHT22;1646;52.450;13.326;2024-03-23T13:11:16;8.20;99.90
3268;DHT22;1646;52.450;13.326;2024-03-23T13:16:14;8.40;99.90
3268;DHT22;1646;52.450;13.326;2024-03-23T13:21:11;8.60;99.90
3268;DHT22;1646;52.450;13.326;2024-03-23T13:26:09;8.90;99.90
3268;DHT22;1646;52.450;13.326;2024-03-23T13:31:06;9.40;99.90
3268;DHT22;1646;52.450;13.326;2024-03-23T13:36:04;9.70;99.90
3268;DHT22;1646;52.450;13.326;2024-03-23T13:41:02;9.80;99.90
3268;DHT22;1646;52.450;13.326;2024-03-23T13:46:03;9.30;99.90
3268;DHT22;1646;52.450;13.326;2024-03-23T13:51:02;9.50;99.90
3268;DHT22;1646;52.450;13.326;2024-03-23T13:55:59;9.50;99.90
3268;DHT22;1646;52.450;13.326;2024-03-23T14:00:57;9.50;99.90
3268;DHT22;1646;52.450;13.326;2024-03-23T14:05:57;9.80;99.90
3268;DHT22;1646;52.450;13.326;2024-03-23T14:10:56;9.90;99.90
3268;DHT22;1646;52.450;13.326;2024-03-23T14:15:54;9.90;99.90
3268;DHT22;1646;52.450;13.326;2024-03-23T14:20:51;9.80;99.90
3268;DHT22;1646;52.450;13.326;2024-03-23T14:25:52;9.60;99.90
3268;DHT22;1646;52.450;13.326;2024-03-23T14:30:49;9.50;99.90
3268;DHT22;1646;52.450;13.326;2024-03-23T14:35:52;9.40;99.90
3268;DHT22;1646;52.450;13.326;2024-03-23T14:40:50;9.70;99.90
3268;DHT22;1646;52.450;13.326;2024-03-23T14:46:06;9.30;99.90
3268;DHT22;1646;52.450;13.326;2024-03-23T14:51:04;9.30;99.90
3268;DHT22;1646;52.450;13.326;2024-03-23T14:56:04;9.10;99.90
3268;DHT22;1646;52.450;13.326;2024-03-23T15:01:02;8.40;99.90
3268;DHT22;1646;52.450;13.326;2024-03-23T15:05:59;8.40;99.90
3268;DHT22;1646;52.450;13.326;2024-03-23T15:10:59;8.90;99.90
3268;DHT22;1646;52.450;13.326;2024-03-23T15:15:58;9.60;99.90
3268;DHT22;1646;52.450;13.326;2024-03-23T15:20:56;10.00;99.90
3268;DHT22;1646;52.450;13.326;2024-03-23T15:25:56;10.30;99.90
3268;DHT22;1646;52.450;13.326;2024-03-23T15:31:00;10.30;99.90
3268;DHT22;1646;52.450;13.326;2024-03-23T15:35:58;10.10;99.90
3268;DHT22;1646;52.450;13.326;2024-03-23T15:40:56;10.10;99.90
3268;DHT22;1646;52.450;13.326;2024-03-23T15:45:56;10.40;99.90
3268;DHT22;1646;52.450;13.326;2024-03-23T15:50:56;10.60;99.90
3268;DHT22;1646;52.450;13.326;2024-03-23T15:55:54;10.80;99.90
3268;DHT22;1646;52.450;13.326;2024-03-23T16:00:54;10.70;99.90
3268;DHT22;1646;52.450;13.326;2024-03-23T16:05:52;11.10;99.90
3268;DHT22;1646;52.450;13.326;2024-03-23T16:10:50;12.20;99.90
3268;DHT22;1646;52.450;13.326;2024-03-23T16:15:54;13.40;99.90
3268;DHT22;1646;52.450;13.326;2024-03-23T16:20:56;13.90;99.90
3268;DHT22;1646;52.450;13.326;2024-03-23T16:25:55;14.90;99.90
3268;DHT22;1646;52.450;13.326;2024-03-23T16:30:57;14.20;99.90
3268;DHT22;1646;52.450;13.326;2024-03-23T16:35:57;11.80;99.90
3268;DHT22;1646;52.450;13.326;2024-03-23T16:40:57;10.90;99.90
3268;DHT22;1646;52.450;13.326;2024-03-23T16:45:56;11.60;99.90
3268;DHT22;1646;52.450;13.326;2024-03-23T16:50:57;12.10;99.90
3268;DHT22;1646;52.450;13.326;2024-03-23T16:55:55;11.20;99.90
3268;DHT22;1646;52.450;13.326;2024-03-23T17:00:54;10.10;99.90
3268;DHT22;1646;52.450;13.326;2024-03-23T17:05:53;9.20;99.90
3268;DHT22;1646;52.450;13.326;2024-03-23T17:10:50;8.70;99.90
3268;DHT22;1646;52.450;13.326;2024-03-23T17:15:47;8.40;99.90
3268;DHT22;1646;52.450;13.326;2024-03-23T17:20:45;8.40;99.90
3268;DHT22;1646;52.450;13.326;2024-03-23T17:25:42;8.00;99.90
3268;DHT22;1646;52.450;13.326;2024-03-23T17:30:40;8.00;99.90
3268;DHT22;1646;52.450;13.326;2024-03-23T17:35:37;7.90;99.90
3268;DHT22;1646;52.450;13.326;2024-03-23T17:40:35;7.90;99.90
3268;DHT22;1646;52.450;13.326;2024-03-23T17:45:33;7.90;99.90
3268;DHT22;1646;52.450;13.326;2024-03-23T17:50:30;7.90;99.90
3268;DHT22;1646;52.450;13.326;2024-03-23T17:55:28;7.70;99.90
3268;DHT22;1646;52.450;13.326;2024-03-23T18:00:26;7.70;99.90
3268;DHT22;1646;52.450;13.326;2024-03-23T18:05:43;7.70;99.90
3268;DHT22;1646;52.450;13.326;2024-03-23T18:10:40;7.50;99.90
3268;DHT22;1646;52.450;13.326;2024-03-23T18:15:38;7.50;99.90
3268;DHT22;1646;52.450;13.326;2024-03-23T18:20:36;7.50;99.90
3268;DHT22;1646;52.450;13.326;2024-03-23T18:25:33;7.50;99.90
3268;DHT22;1646;52.450;13.326;2024-03-23T18:30:30;7.60;99.90
3268;DHT22;1646;52.450;13.326;2024-03-23T18:35:29;7.10;99.90
3268;DHT22;1646;52.450;13.326;2024-03-23T18:40:26;6.70;99.90
3268;DHT22;1646;52.450;13.326;2024-03-23T18:45:23;6.60;99.90
3268;DHT22;1646;52.450;13.326;2024-03-23T18:50:20;6.60;99.90
3268;DHT22;1646;52.450;13.326;2024-03-23T18:55:19;6.50;99.90
3268;DHT22;1646;52.450;13.326;2024-03-23T19:00:17;6.20;99.90
3268;DHT22;1646;52.450;13.326;2024-03-23T19:05:14;6.10;99.90
3268;DHT22;1646;52.450;13.326;2024-03-23T19:10:12;6.10;99.90
3268;DHT22;1646;52.450;13.326;2024-03-23T19:15:10;6.00;99.90
3268;DHT22;1646;52.450;13.326;2024-03-23T19:20:08;5.90;99.90
3268;DHT22;1646;52.450;13.326;2024-03-23T19:25:06;5.90;99.90
3268;DHT22;1646;52.450;13.326;2024-03-23T19:30:06;6.00;99.90
3268;DHT22;1646;52.450;13.326;2024-03-23T19:35:05;6.10;99.90
3268;DHT22;1646;52.450;13.326;2024-03-23T19:40:03;6.10;99.90
3268;DHT22;1646;52.450;13.326;2024-03-23T19:45:00;6.20;99.90
3268;DHT22;1646;52.450;13.326;2024-03-23T19:49:58;6.20;99.90
3268;DHT22;1646;52.450;13.326;2024-03-23T19:54:56;6.20;99.90
3268;DHT22;1646;52.450;13.326;2024-03-23T19:59:53;6.20;99.90
3268;DHT22;1646;52.450;13.326;2024-03-23T20:04:51;6.40;99.90
3268;DHT22;1646;52.450;13.326;2024-03-23T20:09:48;6.30;99.90
3268;DHT22;1646;52.450;13.326;2024-03-23T20:14:46;6.30;99.90
3268;DHT22;1646;52.450;13.326;2024-03-23T20:19:43;6.40;99.90
3268;DHT22;1646;52.450;13.326;2024-03-23T20:24:41;6.50;99.90
3268;DHT22;1646;52.450;13.326;2024-03-23T20:29:38;6.50;99.90
3268;DHT22;1646;52.450;13.326;2024-03-23T20:34:36;6.50;99.90
3268;DHT22;1646;52.450;13.326;2024-03-23T20:39:33;6.60;99.90
3268;DHT22;1646;52.450;13.326;2024-03-23T20:44:30;6.50;99.90
3268;DHT22;1646;52.450;13.326;2024-03-23T20:49:28;6.50;99.90
3268;DHT22;1646;52.450;13.326;2024-03-23T20:54:26;6.50;99.90
3268;DHT22;1646;52.450;13.326;2024-03-23T20:59:23;6.40;99.90
3268;DHT22;1646;52.450;13.326;2024-03-23T21:04:20;6.30;99.90
3268;DHT22;1646;52.450;13.326;2024-03-23T21:09:18;6.20;99.90
3268;DHT22;1646;52.450;13.326;2024-03-23T21:14:16;6.20;99.90
3268;DHT22;1646;52.450;13.326;2024-03-23T21:19:13;6.20;99.90
3268;DHT22;1646;52.450;13.326;2024-03-23T21:24:11;6.00;99.90
3268;DHT22;1646;52.450;13.326;2024-03-23T21:29:08;5.90;99.90
3268;DHT22;1646;52.450;13.326;2024-03-23T21:34:06;5.90;99.90
3268;DHT22;1646;52.450;13.326;2024-03-23T21:39:03;5.90;99.90
3268;DHT22;1646;52.450;13.326;2024-03-23T21:44:03;5.90;99.90
3268;DHT22;1646;52.450;13.326;2024-03-23T21:49:01;5.90;99.90
3268;DHT22;1646;52.450;13.326;2024-03-23T21:53:59;5.90;99.90
3268;DHT22;1646;52.450;13.326;2024-03-23T21:58:58;5.80;99.90
3268;DHT22;1646;52.450;13.326;2024-03-23T22:03:56;5.70;99.90
3268;DHT22;1646;52.450;13.326;2024-03-23T22:08:53;5.60;99.90
3268;DHT22;1646;52.450;13.326;2024-03-23T22:13:51;5.60;99.90
3268;DHT22;1646;52.450;13.326;2024-03-23T22:18:48;5.70;99.90
3268;DHT22;1646;52.450;13.326;2024-03-23T22:23:46;5.50;99.90
3268;DHT22;1646;52.450;13.326;2024-03-23T22:28:46;5.50;99.90
3268;DHT22;1646;52.450;13.326;2024-03-23T22:33:45;5.50;99.90
3268;DHT22;1646;52.450;13.326;2024-03-23T22:38:42;5.40;99.90
3268;DHT22;1646;52.450;13.326;2024-03-23T22:43:39;5.30;99.90
3268;DHT22;1646;52.450;13.326;2024-03-23T22:48:36;5.30;99.90
3268;DHT22;1646;52.450;13.326;2024-03-23T22:53:35;5.30;99.90
3268;DHT22;1646;52.450;13.326;2024-03-23T22:58:32;5.20;99.90
3268;DHT22;1646;52.450;13.326;2024-03-23T23:03:29;5.20;99.90
3268;DHT22;1646;52.450;13.326;2024-03-23T23:08:27;5.20;99.90
3268;DHT22;1646;52.450;13.326;2024-03-23T23:13:25;5.10;99.90
3268;DHT22;1646;52.450;13.326;2024-03-23T23:18:25;5.00;99.90
3268;DHT22;1646;52.450;13.326;2024-03-23T23:23:23;4.90;99.90
3268;DHT22;1646;52.450;13.326;2024-03-23T23:28:20;4.90;99.90
3268;DHT22;1646;52.450;13.326;2024-03-23T23:33:19;4.90;99.90
3268;DHT22;1646;52.450;13.326;2024-03-23T23:38:16;5.00;99.90
3268;DHT22;1646;52.450;13.326;2024-03-23T23:43:13;5.20;99.90
3268;DHT22;1646;52.450;13.326;2024-03-23T23:48:11;5.10;99.90
3268;DHT22;1646;52.450;13.326;2024-03-23T23:53:09;5.20;99.90
3268;DHT22;1646;52.450;13.326;2024-03-23T23:58:07;5.20;99.90
